Time;durP1;ratioP1;P1;durP2;ratioP2;P2;SDS_P1;SDS_P2;PMS_P1;PMS_P2;Temp;Humidity;BMP_temperature;BMP_pressure;BME280_temperature;BME280_humidity;BME280_pressure;Samples;Min_cycle;Max_cycle;Signal;HPM_P1;HPM_P2
2022/07/06 00:00:02;;;;;;;263.33;76.50;;;16.50;99.90;;;;;;10418454;28;20048;-84
2022/07/06 00:05:03;;;;;;;316.73;83.07;;;16.60;99.90;;;;;;10411833;28;20037;-85
2022/07/06 00:10:04;;;;;;;260.98;75.25;;;16.50;99.90;;;;;;10408688;28;20060;-86
2022/07/06 00:15:05;;;;;;;196.88;65.13;;;16.60;99.90;;;;;;10432095;28;20040;-86
2022/07/06 00:20:06;;;;;;;205.07;68.00;;;16.50;99.90;;;;;;10425247;28;20094;-86
2022/07/06 00:25:08;;;;;;;161.65;57.75;;;16.60;99.90;;;;;;10418549;28;20139;-85
2022/07/06 00:30:08;;;;;;;136.18;51.50;;;16.50;99.90;;;;;;10425380;28;20029;-84
2022/07/06 00:35:09;;;;;;;151.90;57.38;;;16.50;99.90;;;;;;10412383;28;20041;-84
2022/07/06 00:40:10;;;;;;;158.88;56.47;;;16.40;99.90;;;;;;10428105;28;20048;-84
2022/07/06 00:45:12;;;;;;;123.88;52.45;;;16.40;99.90;;;;;;10425893;28;20060;-84
2022/07/06 00:50:17;;;;;;;125.95;56.15;;;16.40;99.90;;;;;;10415357;28;20021;-84
2022/07/06 00:55:21;;;;;;;138.32;56.78;;;16.40;99.90;;;;;;10408446;28;20033;-84
2022/07/06 01:00:25;;;;;;;103.88;53.10;;;16.30;99.90;;;;;;10425744;28;20034;-85
2022/07/06 01:05:25;;;;;;;143.52;63.13;;;16.20;99.90;;;;;;10428446;28;20049;-85
2022/07/06 01:10:26;;;;;;;140.90;61.10;;;16.20;99.90;;;;;;10417745;28;20103;-84
2022/07/06 01:15:27;;;;;;;157.98;64.63;;;16.20;99.90;;;;;;10424813;28;20086;-84
2022/07/06 01:20:29;;;;;;;171.55;69.03;;;16.20;99.90;;;;;;10424903;28;20315;-84
2022/07/06 01:25:30;;;;;;;192.35;75.47;;;16.20;99.90;;;;;;10419265;28;20041;-84
2022/07/06 01:30:31;;;;;;;181.82;70.68;;;16.10;99.90;;;;;;10415092;28;20557;-84
2022/07/06 01:35:35;;;;;;;178.38;69.88;;;16.10;99.90;;;;;;10417109;28;20041;-84
2022/07/06 01:40:35;;;;;;;125.75;60.38;;;16.00;99.90;;;;;;10418995;28;20144;-85
2022/07/06 01:45:36;;;;;;;148.43;66.10;;;16.00;99.90;;;;;;10427688;28;20079;-84
2022/07/06 01:50:37;;;;;;;192.95;70.93;;;15.90;99.90;;;;;;10419633;28;20384;-85
2022/07/06 01:55:37;;;;;;;186.95;71.22;;;15.90;99.90;;;;;;10427792;28;20045;-84
2022/07/06 02:00:38;;;;;;;195.40;73.25;;;15.90;99.90;;;;;;10434911;28;20040;-85
2022/07/06 02:05:38;;;;;;;154.13;65.30;;;15.80;99.90;;;;;;10426046;28;20480;-87
2022/07/06 02:10:40;;;;;;;246.00;78.85;;;15.70;99.90;;;;;;10438807;28;20029;-86
2022/07/06 02:15:40;;;;;;;145.05;60.20;;;15.70;99.90;;;;;;10424961;28;20020;-84
2022/07/06 02:20:41;;;;;;;135.32;59.72;;;15.60;99.90;;;;;;10426645;28;20417;-84
2022/07/06 02:25:42;;;;;;;146.32;63.42;;;15.60;99.90;;;;;;10426698;28;20660;-84
2022/07/06 02:30:42;;;;;;;125.38;58.47;;;15.60;99.90;;;;;;10412705;28;20036;-83
2022/07/06 02:35:43;;;;;;;146.23;61.08;;;15.60;99.90;;;;;;10420254;28;20033;-85
2022/07/06 02:40:44;;;;;;;176.70;66.15;;;15.60;99.90;;;;;;10419088;28;20045;-83
2022/07/06 02:45:44;;;;;;;157.35;60.25;;;15.60;99.90;;;;;;10412811;28;20036;-83
2022/07/06 02:50:45;;;;;;;96.50;47.22;;;15.60;99.90;;;;;;10410804;28;20065;-84
2022/07/06 02:55:45;;;;;;;99.40;50.15;;;15.50;99.90;;;;;;10417256;28;20018;-85
2022/07/06 03:00:46;;;;;;;110.90;47.28;;;15.40;99.90;;;;;;10418290;28;20841;-84
2022/07/06 03:05:48;;;;;;;91.10;44.65;;;15.40;99.90;;;;;;10428400;28;20082;-86
2022/07/06 03:10:49;;;;;;;131.35;51.20;;;15.30;99.90;;;;;;10422620;28;20646;-85
2022/07/06 03:15:49;;;;;;;102.18;45.33;;;15.20;99.90;;;;;;10415946;28;20040;-85
2022/07/06 03:20:50;;;;;;;118.10;47.75;;;15.20;99.90;;;;;;10412587;28;20087;-87
2022/07/06 03:25:50;;;;;;;107.30;47.88;;;15.10;99.90;;;;;;10432639;28;20041;-87
2022/07/06 03:30:52;;;;;;;129.80;51.67;;;15.10;99.90;;;;;;10429622;28;20078;-86
2022/07/06 03:35:53;;;;;;;116.93;51.33;;;15.20;99.90;;;;;;10420044;28;20390;-87
2022/07/06 03:40:53;;;;;;;100.22;48.55;;;15.20;99.90;;;;;;10411003;28;20600;-87
2022/07/06 03:45:54;;;;;;;101.07;49.58;;;15.40;99.90;;;;;;10435767;28;20040;-87
2022/07/06 03:50:55;;;;;;;120.65;50.00;;;15.40;99.90;;;;;;10422032;28;20091;-88
2022/07/06 04:01:15;;;;;;;123.38;52.92;;;15.60;99.90;;;;;;10410996;28;20083;-85
2022/07/06 04:06:16;;;;;;;83.30;42.63;;;15.70;99.90;;;;;;10413345;28;20108;-86
2022/07/06 04:11:16;;;;;;;84.20;42.47;;;15.70;99.90;;;;;;10434678;28;20018;-86
2022/07/06 04:16:17;;;;;;;105.32;46.13;;;15.80;99.90;;;;;;10427102;28;20679;-85
2022/07/06 04:21:17;;;;;;;128.85;48.97;;;15.70;99.90;;;;;;10415884;28;20596;-84
2022/07/06 04:26:18;;;;;;;94.75;47.00;;;15.80;99.90;;;;;;10408532;28;20058;-87
2022/07/06 04:31:18;;;;;;;90.18;42.55;;;16.00;99.90;;;;;;10425306;28;20033;-85
2022/07/06 04:36:19;;;;;;;87.63;42.90;;;16.00;99.90;;;;;;10443553;28;20036;-82
2022/07/06 04:41:20;;;;;;;81.55;42.63;;;16.00;99.90;;;;;;10426805;28;20037;-82
2022/07/06 04:46:20;;;;;;;73.63;40.67;;;16.00;99.90;;;;;;10430095;28;20040;-82
2022/07/06 04:51:21;;;;;;;78.75;40.85;;;16.10;99.90;;;;;;10425996;28;20029;-82
2022/07/06 04:56:21;;;;;;;71.22;38.42;;;16.20;99.90;;;;;;10423173;28;20025;-82
2022/07/06 05:01:22;;;;;;;63.58;35.53;;;16.30;99.90;;;;;;10427223;28;20086;-83
2022/07/06 05:06:23;;;;;;;59.55;36.10;;;16.40;99.90;;;;;;10429040;28;20021;-83
2022/07/06 05:11:23;;;;;;;68.20;38.10;;;16.50;99.90;;;;;;10427158;28;20017;-83
2022/07/06 05:16:24;;;;;;;59.92;34.67;;;16.50;99.90;;;;;;10412735;28;20018;-83
2022/07/06 05:21:24;;;;;;;62.25;35.97;;;16.50;99.90;;;;;;10416342;28;20521;-84
2022/07/06 05:26:25;;;;;;;60.58;35.45;;;16.50;99.90;;;;;;10411991;28;20045;-82
2022/07/06 05:31:26;;;;;;;64.05;35.65;;;16.60;99.90;;;;;;10412280;28;20057;-83
2022/07/06 05:36:26;;;;;;;62.25;35.15;;;16.60;99.90;;;;;;10416823;28;20095;-85
2022/07/06 05:41:27;;;;;;;69.88;39.38;;;16.60;99.90;;;;;;10439486;28;20037;-86
2022/07/06 05:46:28;;;;;;;48.38;30.23;;;16.70;99.90;;;;;;10409845;28;20021;-86
2022/07/06 05:51:28;;;;;;;54.03;32.90;;;16.90;99.90;;;;;;10423205;28;20111;-85
2022/07/06 05:56:29;;;;;;;43.78;29.77;;;16.90;99.90;;;;;;10422681;28;20017;-87
2022/07/06 06:01:29;;;;;;;39.47;28.88;;;17.10;99.90;;;;;;10422211;28;20132;-86
2022/07/06 06:06:31;;;;;;;42.13;29.48;;;17.20;99.90;;;;;;10432751;28;20029;-85
2022/07/06 06:11:32;;;;;;;40.15;27.83;;;17.20;99.90;;;;;;10425795;28;20021;-86
2022/07/06 06:16:33;;;;;;;42.42;28.60;;;17.20;99.90;;;;;;10420950;28;20029;-85
2022/07/06 06:21:33;;;;;;;48.22;32.80;;;17.30;99.90;;;;;;10425508;28;20048;-86
2022/07/06 06:26:34;;;;;;;45.67;30.10;;;17.40;99.90;;;;;;10421021;28;20053;-86
2022/07/06 06:31:34;;;;;;;37.22;27.00;;;17.40;99.90;;;;;;10434262;28;20692;-85
2022/07/06 06:37:37;;;;;;;39.92;26.27;;;17.40;99.90;;;;;;10430760;28;20388;-85
2022/07/06 06:42:38;;;;;;;39.80;29.75;;;17.30;99.90;;;;;;10397760;28;20095;-84
2022/07/06 06:47:38;;;;;;;52.38;35.15;;;17.20;99.90;;;;;;10415139;28;20309;-84
2022/07/06 06:52:39;;;;;;;41.20;31.30;;;17.20;99.90;;;;;;10407289;28;20044;-84
2022/07/06 06:57:39;;;;;;;34.92;26.23;;;17.10;99.90;;;;;;10411408;28;20029;-85
2022/07/06 07:02:40;;;;;;;30.48;24.40;;;17.30;99.90;;;;;;10408847;28;20445;-85
2022/07/06 07:07:41;;;;;;;29.20;23.05;;;17.50;99.90;;;;;;10426973;28;20036;-85
2022/07/06 07:13:34;;;;;;;35.25;24.95;;;17.40;99.90;;;;;;10422534;28;20028;-86
2022/07/06 07:18:35;;;;;;;35.35;25.65;;;17.20;99.90;;;;;;10427170;28;20128;-84
2022/07/06 07:23:35;;;;;;;31.95;25.90;;;17.20;99.90;;;;;;10427939;28;20044;-85
2022/07/06 07:28:36;;;;;;;33.85;26.77;;;17.40;99.90;;;;;;10418064;28;20492;-84
2022/07/06 07:33:37;;;;;;;37.88;28.90;;;17.50;99.90;;;;;;10427500;28;20415;-82
2022/07/06 07:38:43;;;;;;;38.08;30.05;;;17.10;99.90;;;;;;10420458;28;20378;-85
2022/07/06 07:43:44;;;;;;;35.28;29.88;;;17.00;99.90;;;;;;10426753;28;20048;-84
2022/07/06 07:48:57;;;;;;;43.03;35.03;;;16.90;99.90;;;;;;10417109;28;20026;-85
2022/07/06 07:54:28;;;;;;;;;;;;;;;;;;;;;
2022/07/06 07:59:29;;;;;;;35.15;28.98;;;16.50;99.90;;;;;;10440382;28;20041;-84
2022/07/06 08:04:50;;;;;;;30.67;25.08;;;16.60;99.90;;;;;;10431636;28;20032;-85
2022/07/06 08:10:42;;;;;;;30.08;26.88;;;16.60;99.90;;;;;;10409329;28;20096;-84
2022/07/06 08:15:43;;;;;;;17.17;14.90;;;17.20;99.90;;;;;;10407602;28;20044;-84
2022/07/06 08:21:36;;;;;;;15.07;13.10;;;17.80;99.90;;;;;;10417777;28;20045;-82
2022/07/06 08:26:30;;;;;;;9.68;8.40;;;18.70;99.90;;;;;;10388016;28;20151;-84
2022/07/06 08:31:31;;;;;;;8.75;7.80;;;19.20;99.90;;;;;;10414824;28;20024;-82
2022/07/06 08:36:32;;;;;;;9.45;8.48;;;18.70;99.90;;;;;;10417322;28;20028;-84
2022/07/06 08:41:33;;;;;;;13.40;9.10;;;18.40;99.90;;;;;;10411273;28;20056;-83
2022/07/06 08:46:35;;;;;;;8.35;7.07;;;18.20;99.90;;;;;;10419283;28;20021;-84
2022/07/06 08:57:33;;;;;;;8.73;7.32;;;18.00;99.90;;;;;;10414084;28;20080;-84
2022/07/06 09:02:34;;;;;;;9.65;7.70;;;17.70;99.90;;;;;;10423855;28;20136;-85
2022/07/06 09:07:35;;;;;;;10.57;9.27;;;17.40;99.90;;;;;;10406379;28;20029;-85
2022/07/06 09:12:36;;;;;;;15.98;9.52;;;17.30;99.90;;;;;;10405969;28;20509;-86
2022/07/06 09:17:41;;;;;;;11.48;9.55;;;17.20;99.90;;;;;;10429182;28;20016;-85
2022/07/06 09:22:41;;;;;;;12.27;8.70;;;17.30;99.90;;;;;;10423704;28;20377;-84
2022/07/06 09:27:54;;;;;;;9.75;7.30;;;17.40;99.90;;;;;;10431412;28;20048;-84
2022/07/06 09:32:57;;;;;;;8.10;6.70;;;17.70;99.90;;;;;;10413700;28;20079;-86
2022/07/06 09:38:14;;;;;;;11.38;6.35;;;17.90;99.90;;;;;;10422828;28;20124;-85
2022/07/06 09:43:22;;;;;;;8.55;7.00;;;18.30;99.90;;;;;;10428257;28;20072;-85
2022/07/06 10:58:00;;;;;;;4.63;3.92;;;20.10;99.90;;;;;;11947538;23;20273;-83
2022/07/06 11:03:33;;;;;;;4.55;3.33;;;20.60;99.90;;;;;;10098098;29;20520;-83
2022/07/06 11:08:58;;;;;;;4.20;3.80;;;21.00;99.90;;;;;;10098794;29;20029;-87
2022/07/06 11:14:01;;;;;;;4.15;3.67;;;21.00;99.90;;;;;;10073004;29;20053;-82
2022/07/06 11:19:12;;;;;;;3.72;3.33;;;21.60;99.90;;;;;;10103941;29;20045;-85
2022/07/06 11:24:15;;;;;;;6.28;3.58;;;22.10;99.90;;;;;;10070315;29;20124;-85
2022/07/06 11:29:18;;;;;;;4.15;3.30;;;22.10;99.90;;;;;;10083249;29;20068;-83
2022/07/06 11:34:24;;;;;;;4.20;3.75;;;21.80;99.90;;;;;;10083728;29;20037;-85
2022/07/06 11:39:29;;;;;;;4.13;3.03;;;21.50;99.90;;;;;;10095432;29;20060;-83
2022/07/06 11:44:30;;;;;;;;;;;21.30;99.90;;;;;;10110531;29;20366;-83
2022/07/06 11:49:35;;;;;;;4.90;4.40;;;21.00;99.90;;;;;;10095102;29;19915;-87
2022/07/06 11:54:36;;;;;;;4.22;3.60;;;20.60;99.90;;;;;;10096065;29;20683;-85
2022/07/06 11:59:39;;;;;;;5.68;3.30;;;20.30;99.90;;;;;;10098978;29;20060;-87
2022/07/06 12:04:42;;;;;;;4.10;3.65;;;20.40;99.90;;;;;;10117059;29;20075;-85
2022/07/06 12:09:45;;;;;;;5.93;3.22;;;21.10;99.90;;;;;;10114790;29;20639;-86
2022/07/06 12:14:46;;;;;;;3.38;2.92;;;21.40;99.90;;;;;;10106303;29;20041;-85
2022/07/06 12:19:53;;;;;;;4.78;2.75;;;20.90;99.90;;;;;;10097874;29;20037;-86
2022/07/06 12:24:54;;;;;;;3.58;2.80;;;20.50;99.90;;;;;;10122452;29;20033;-84
2022/07/06 12:30:11;;;;;;;4.97;3.25;;;20.00;99.90;;;;;;10107707;29;20029;-83
2022/07/06 12:35:12;;;;;;;4.25;3.22;;;20.60;99.90;;;;;;10119811;29;20021;-85
2022/07/06 12:40:14;;;;;;;3.15;2.85;;;21.80;99.90;;;;;;10119138;29;20041;-85
2022/07/06 12:45:15;;;;;;;4.15;2.75;;;22.50;99.90;;;;;;10119054;29;20031;-84
2022/07/06 12:50:16;;;;;;;4.53;2.88;;;22.70;99.90;;;;;;10104212;29;20033;-84
2022/07/06 12:55:16;;;;;;;3.25;2.40;;;22.90;99.90;;;;;;10128906;29;20092;-85
2022/07/06 13:00:18;;;;;;;2.63;2.40;;;23.20;99.90;;;;;;10123439;29;20069;-85
2022/07/06 13:05:27;;;;;;;3.45;2.30;;;23.60;99.90;;;;;;10125119;29;20029;-86
2022/07/06 13:10:30;;;;;;;2.88;2.40;;;23.60;99.90;;;;;;10127744;29;20949;-88
2022/07/06 13:15:30;;;;;;;3.25;2.03;;;24.10;99.90;;;;;;10125713;29;20017;-85
2022/07/06 13:20:31;;;;;;;2.10;1.90;;;24.40;99.90;;;;;;10117252;29;20044;-87
2022/07/06 13:25:32;;;;;;;2.13;1.88;;;24.60;99.90;;;;;;10110679;29;20027;-85
2022/07/06 13:30:32;;;;;;;4.13;1.90;;;24.70;99.90;;;;;;10098164;29;20097;-86
2022/07/06 13:35:33;;;;;;;2.15;1.95;;;25.00;99.90;;;;;;10120749;29;20032;-88
2022/07/06 13:40:35;;;;;;;4.38;2.10;;;25.00;97.60;;;;;;10103913;29;20165;-89
2022/07/06 13:45:36;;;;;;;1.50;1.40;;;24.30;99.90;;;;;;10099802;29;20044;-84
2022/07/06 13:50:37;;;;;;;2.28;1.75;;;24.20;98.30;;;;;;10118400;29;20174;-88
2022/07/06 13:55:37;;;;;;;3.15;1.70;;;24.40;99.90;;;;;;10128604;29;20036;-85
2022/07/06 14:00:38;;;;;;;2.85;1.98;;;24.40;94.80;;;;;;10110389;29;20049;-86
2022/07/06 14:05:39;;;;;;;1.70;1.33;;;24.00;94.50;;;;;;10103386;29;20033;-87
2022/07/06 14:10:39;;;;;;;3.55;1.67;;;24.00;94.90;;;;;;10096946;29;20036;-84
2022/07/06 14:15:40;;;;;;;2.05;1.60;;;24.20;92.20;;;;;;10121871;29;20017;-86
2022/07/06 14:20:41;;;;;;;2.60;1.58;;;24.40;92.70;;;;;;10126633;29;20096;-84
2022/07/06 14:25:43;;;;;;;2.08;1.70;;;24.70;90.80;;;;;;10129512;29;20107;-87
2022/07/06 14:30:45;;;;;;;2.45;1.77;;;24.60;87.70;;;;;;10124411;29;20059;-85
2022/07/06 14:35:53;;;;;;;1.40;1.30;;;23.90;90.20;;;;;;10125126;29;20013;-91
2022/07/06 14:40:53;;;;;;;4.15;1.48;;;23.80;87.50;;;;;;10101405;29;20041;-84
2022/07/06 14:45:54;;;;;;;3.33;2.25;;;24.00;82.00;;;;;;10119064;29;20036;-88
2022/07/06 14:50:55;;;;;;;3.55;2.38;;;23.20;86.60;;;;;;10102426;29;20075;-86
2022/07/06 14:55:56;;;;;;;6.20;2.83;;;22.20;90.50;;;;;;10107410;29;20454;-88
2022/07/06 15:01:15;;;;;;;7.72;3.10;;;21.50;92.80;;;;;;10109260;29;20529;-86
2022/07/06 15:06:16;;;;;;;5.13;2.65;;;21.60;93.00;;;;;;10103864;29;20040;-84
2022/07/06 15:11:17;;;;;;;3.63;2.75;;;21.30;93.30;;;;;;10115554;29;20037;-87
2022/07/06 15:16:17;;;;;;;5.55;2.50;;;21.30;91.30;;;;;;10126004;29;20517;-84
2022/07/06 15:21:18;;;;;;;3.63;1.85;;;21.10;91.20;;;;;;10114650;29;20044;-85
2022/07/06 15:26:19;;;;;;;4.32;1.80;;;21.10;91.50;;;;;;10107505;29;20040;-86
2022/07/06 15:31:19;;;;;;;5.38;1.80;;;21.00;91.00;;;;;;10091451;29;20029;-85
2022/07/06 15:36:20;;;;;;;4.68;1.80;;;20.70;91.50;;;;;;10108632;29;20059;-86
2022/07/06 15:41:20;;;;;;;2.63;1.60;;;20.70;90.30;;;;;;10124183;29;20037;-84
2022/07/06 15:46:23;;;;;;;7.22;2.00;;;20.40;91.50;;;;;;10121716;29;20039;-88
2022/07/06 15:51:23;;;;;;;1.92;1.80;;;20.20;90.60;;;;;;10126288;29;20021;-84
2022/07/06 15:56:24;;;;;;;2.45;1.83;;;19.90;91.50;;;;;;10123570;29;20092;-85
2022/07/06 16:01:24;;;;;;;3.38;1.70;;;19.70;91.50;;;;;;10118149;29;20078;-86
2022/07/06 16:06:25;;;;;;;1.85;1.60;;;19.60;91.20;;;;;;10124711;29;20029;-84
2022/07/06 16:11:25;;;;;;;4.28;1.98;;;19.50;91.00;;;;;;10106055;29;20040;-83
2022/07/06 16:16:26;;;;;;;1.70;1.60;;;19.60;91.30;;;;;;10120659;29;20020;-88
2022/07/06 16:21:28;;;;;;;4.05;1.45;;;19.80;91.50;;;;;;10124023;29;20048;-85
2022/07/06 16:26:29;;;;;;;3.15;1.60;;;20.10;91.40;;;;;;10106983;29;20076;-84
2022/07/06 16:31:29;;;;;;;2.63;1.48;;;20.20;90.70;;;;;;10122747;29;20374;-85
2022/07/06 16:36:30;;;;;;;2.00;1.63;;;20.20;90.40;;;;;;10120597;29;20043;-84
2022/07/06 16:41:30;;;;;;;3.13;1.70;;;20.10;90.20;;;;;;10122563;29;20044;-86
2022/07/06 16:46:31;;;;;;;4.15;1.95;;;20.00;90.80;;;;;;10121062;29;20037;-86
2022/07/06 16:51:32;;;;;;;4.05;1.83;;;19.90;91.30;;;;;;10120718;29;20032;-86
2022/07/06 16:56:33;;;;;;;1.98;1.75;;;19.90;90.30;;;;;;10120735;29;20087;-85
2022/07/06 17:01:34;;;;;;;1.60;1.50;;;19.70;91.40;;;;;;10118890;29;20069;-87
2022/07/06 17:06:34;;;;;;;2.88;1.60;;;19.70;91.90;;;;;;10114586;29;20025;-84
2022/07/06 17:11:35;;;;;;;2.55;1.50;;;19.60;91.00;;;;;;10123009;29;20068;-87
2022/07/06 17:16:36;;;;;;;6.55;1.83;;;19.60;90.70;;;;;;10121245;29;20042;-84
2022/07/06 17:21:36;;;;;;;3.05;1.85;;;19.50;90.90;;;;;;10122863;29;20056;-87
2022/07/06 17:26:38;;;;;;;2.72;2.10;;;19.50;91.60;;;;;;10121551;29;20462;-85
2022/07/06 17:31:43;;;;;;;3.05;1.58;;;19.40;91.40;;;;;;10104189;29;20091;-87
2022/07/06 17:36:43;;;;;;;1.67;1.47;;;19.20;92.20;;;;;;10124640;29;20737;-86
2022/07/06 17:41:44;;;;;;;2.60;1.52;;;19.20;92.50;;;;;;10130300;29;20036;-88
2022/07/06 17:46:45;;;;;;;2.53;2.00;;;19.10;93.50;;;;;;10110898;29;20028;-89
2022/07/06 17:51:45;;;;;;;2.45;1.90;;;18.80;94.80;;;;;;10113097;29;20012;-86
2022/07/06 17:56:46;;;;;;;2.00;1.80;;;18.60;96.30;;;;;;10127776;29;20037;-87
2022/07/06 18:01:46;;;;;;;3.40;2.00;;;18.30;98.60;;;;;;10127966;29;20051;-87
2022/07/06 18:06:47;;;;;;;3.58;2.20;;;18.00;99.90;;;;;;10105950;29;20032;-85
2022/07/06 18:11:48;;;;;;;3.30;2.60;;;17.70;99.90;;;;;;10111466;29;20073;-86
2022/07/06 18:16:48;;;;;;;4.03;2.60;;;17.40;99.90;;;;;;10122494;29;20043;-88
2022/07/06 18:21:49;;;;;;;2.72;2.53;;;17.20;99.90;;;;;;10109167;29;20528;-87
2022/07/06 18:26:54;;;;;;;4.32;2.70;;;16.90;99.90;;;;;;10104098;29;20041;-86
2022/07/06 18:31:54;;;;;;;8.43;3.35;;;16.60;99.90;;;;;;10109115;29;20086;-85
2022/07/06 18:36:55;;;;;;;3.83;2.88;;;16.30;99.90;;;;;;10127891;29;20441;-86
2022/07/06 18:41:55;;;;;;;3.20;2.83;;;16.20;99.90;;;;;;10127894;29;20103;-85
2022/07/06 18:46:56;;;;;;;3.63;2.78;;;16.00;99.90;;;;;;10137992;23;20056;-86
2022/07/06 18:51:57;;;;;;;5.30;3.05;;;15.90;99.90;;;;;;10166623;29;20032;-85
2022/07/06 18:56:58;;;;;;;6.07;3.03;;;16.00;99.90;;;;;;10166221;29;20520;-86
2022/07/06 19:01:58;;;;;;;4.65;2.70;;;15.80;99.90;;;;;;10162866;29;20052;-86
2022/07/06 19:06:59;;;;;;;3.53;2.67;;;15.70;99.90;;;;;;10144516;29;20036;-85
2022/07/06 19:12:00;;;;;;;6.90;3.15;;;15.50;99.90;;;;;;10163900;29;20051;-84
2022/07/06 19:17:00;;;;;;;9.88;3.20;;;15.40;99.90;;;;;;10161970;29;20036;-85
2022/07/06 19:22:01;;;;;;;5.28;3.15;;;15.30;99.90;;;;;;10165658;29;20036;-85
2022/07/06 19:27:03;;;;;;;10.27;4.40;;;15.10;99.90;;;;;;10158089;29;20055;-85
2022/07/06 19:32:05;;;;;;;16.77;7.80;;;14.90;99.90;;;;;;10168969;29;20128;-86
2022/07/06 19:37:05;;;;;;;18.98;8.98;;;14.80;99.90;;;;;;10138412;29;20035;-86
2022/07/06 19:42:06;;;;;;;20.67;10.30;;;14.80;99.90;;;;;;10158756;29;20035;-86
2022/07/06 19:47:08;;;;;;;20.63;10.25;;;14.80;99.90;;;;;;10149694;29;20445;-87
2022/07/06 19:52:10;;;;;;;15.07;7.97;;;14.70;99.90;;;;;;10162718;29;20511;-85
2022/07/06 19:57:10;;;;;;;9.50;6.00;;;14.80;99.90;;;;;;10147940;29;20032;-86
2022/07/06 20:02:12;;;;;;;10.63;4.95;;;14.80;99.90;;;;;;10158293;29;20476;-86
2022/07/06 20:07:13;;;;;;;6.32;4.20;;;14.90;99.90;;;;;;10154562;29;20042;-87
2022/07/06 20:12:14;;;;;;;6.40;3.88;;;15.00;99.90;;;;;;10158401;29;20040;-85
2022/07/06 20:17:15;;;;;;;8.27;4.20;;;15.00;99.90;;;;;;10137515;29;20024;-84
2022/07/06 20:22:15;;;;;;;5.30;3.75;;;14.90;99.90;;;;;;10146651;29;20381;-86
2022/07/06 20:27:16;;;;;;;7.60;4.05;;;14.80;99.90;;;;;;10136251;29;20084;-85
2022/07/06 20:32:18;;;;;;;6.05;3.75;;;14.80;99.90;;;;;;10146813;29;20024;-86
2022/07/06 20:37:18;;;;;;;6.25;3.60;;;14.80;99.90;;;;;;10150432;29;20080;-85
2022/07/06 20:42:19;;;;;;;5.15;3.80;;;14.80;99.90;;;;;;10144132;29;20047;-86
2022/07/06 20:47:20;;;;;;;4.43;3.60;;;14.60;99.90;;;;;;10150519;29;20408;-85
2022/07/06 20:52:20;;;;;;;4.90;3.90;;;14.60;99.90;;;;;;10149738;29;20026;-85
2022/07/06 20:57:21;;;;;;;4.40;3.40;;;14.50;99.90;;;;;;10155633;29;20105;-85
2022/07/06 21:02:21;;;;;;;8.63;4.70;;;14.50;99.90;;;;;;10162900;29;20057;-85
2022/07/06 21:07:22;;;;;;;8.25;5.78;;;14.50;99.90;;;;;;10144632;29;20107;-85
2022/07/06 21:12:23;;;;;;;8.07;5.85;;;14.60;99.90;;;;;;10163573;29;20039;-85
2022/07/06 21:17:23;;;;;;;8.02;6.03;;;14.40;99.90;;;;;;10152348;29;20071;-85
2022/07/06 21:22:24;;;;;;;9.85;6.70;;;14.40;99.90;;;;;;10152664;29;20044;-85
2022/07/06 21:27:24;;;;;;;8.90;7.03;;;14.30;99.90;;;;;;10170850;29;20047;-87
2022/07/06 21:32:25;;;;;;;8.38;6.95;;;14.30;99.90;;;;;;10167569;29;20484;-88
2022/07/06 21:37:26;;;;;;;9.05;6.57;;;14.20;99.90;;;;;;10168454;29;20028;-88
2022/07/06 21:42:27;;;;;;;11.02;7.03;;;14.00;99.90;;;;;;10169247;29;20036;-87
2022/07/06 21:47:27;;;;;;;10.68;7.60;;;13.90;99.90;;;;;;10168891;29;20060;-86
2022/07/06 21:52:28;;;;;;;13.20;8.00;;;13.80;99.90;;;;;;10166819;29;20091;-87
2022/07/06 21:57:28;;;;;;;12.70;8.05;;;13.80;99.90;;;;;;10158956;29;20032;-86
2022/07/06 22:02:29;;;;;;;14.48;9.32;;;13.80;99.90;;;;;;10150856;29;20448;-87
2022/07/06 22:07:30;;;;;;;14.15;8.77;;;13.70;99.90;;;;;;10161221;29;20032;-86
2022/07/06 22:12:30;;;;;;;12.73;8.50;;;13.70;99.90;;;;;;10166678;29;20033;-85
2022/07/06 22:17:32;;;;;;;14.43;8.05;;;13.70;99.90;;;;;;10165949;29;20087;-83
2022/07/06 22:22:32;;;;;;;13.68;8.70;;;13.70;99.90;;;;;;10163767;29;20393;-83
2022/07/06 22:27:33;;;;;;;11.05;8.80;;;13.60;99.90;;;;;;10168055;29;20043;-82
2022/07/06 22:32:34;;;;;;;15.35;9.55;;;13.70;99.90;;;;;;10167252;29;20495;-83
2022/07/06 22:37:34;;;;;;;13.30;8.70;;;13.70;99.90;;;;;;10165991;29;20036;-82
2022/07/06 22:42:35;;;;;;;14.55;8.63;;;13.80;99.90;;;;;;10167022;29;20051;-84
2022/07/06 22:47:35;;;;;;;13.27;8.45;;;13.80;99.90;;;;;;10161386;29;20591;-83
2022/07/06 22:52:36;;;;;;;11.77;7.93;;;13.70;99.90;;;;;;10157313;23;20090;-83
2022/07/06 22:57:37;;;;;;;14.18;9.20;;;13.60;99.90;;;;;;10134159;29;20492;-83
2022/07/06 23:02:37;;;;;;;14.65;9.30;;;13.60;99.90;;;;;;10117391;29;20068;-83
2022/07/06 23:07:38;;;;;;;15.18;9.60;;;13.60;99.90;;;;;;10125656;29;20043;-83
2022/07/06 23:12:39;;;;;;;11.48;9.07;;;13.50;99.90;;;;;;10143567;29;20051;-84
2022/07/06 23:17:39;;;;;;;12.45;8.50;;;13.70;99.90;;;;;;10130836;29;20032;-83
2022/07/06 23:22:40;;;;;;;12.27;8.50;;;13.80;99.90;;;;;;10140596;29;20027;-82
2022/07/06 23:27:40;;;;;;;10.85;8.73;;;13.80;99.90;;;;;;10137657;29;20028;-83
2022/07/06 23:32:41;;;;;;;20.20;9.73;;;13.70;99.90;;;;;;10126503;29;20155;-83
2022/07/06 23:37:42;;;;;;;10.70;7.82;;;13.50;99.90;;;;;;10127938;29;20036;-83
2022/07/06 23:42:42;;;;;;;11.98;9.05;;;13.40;99.90;;;;;;10143434;29;20048;-84
2022/07/06 23:47:43;;;;;;;9.70;7.32;;;13.40;99.90;;;;;;10137631;29;20048;-84
2022/07/06 23:52:44;;;;;;;11.13;7.70;;;13.30;99.90;;;;;;10116481;29;20056;-83
2022/07/06 23:57:44;;;;;;;10.55;7.30;;;13.30;99.90;;;;;;10148905;29;20392;-83
